TimeMST,TemperatureF,Dew PointF,Humidity,Sea Level PressureIn,VisibilityMPH,Wind Direction,Wind SpeedMPH,Gust SpeedMPH,PrecipitationIn,Events,Conditions,WindDirDegrees,DateUTC
12:53 AM,21.0,18.0,88,30.34,10.0,Calm,Calm,-,N/A,,Clear,0,2012-11-16 07:53:00
1:53 AM,24.1,19.0,81,30.32,10.0,SW,3.5,-,N/A,,Clear,230,2012-11-16 08:53:00
2:53 AM,21.9,18.0,85,30.32,10.0,Calm,Calm,-,N/A,,Clear,0,2012-11-16 09:53:00
3:53 AM,21.0,17.1,85,30.32,10.0,Calm,Calm,-,N/A,,Clear,0,2012-11-16 10:53:00
4:53 AM,21.9,18.0,85,30.33,10.0,Calm,Calm,-,N/A,,Clear,0,2012-11-16 11:53:00
5:53 AM,30.0,19.9,66,30.32,10.0,ENE,9.2,-,N/A,,Clear,70,2012-11-16 12:53:00
6:53 AM,30.0,19.0,64,30.32,10.0,Variable,3.5,-,N/A,,Clear,0,2012-11-16 13:53:00
7:53 AM,33.1,19.0,56,30.32,10.0,ESE,8.1,-,N/A,,Clear,110,2012-11-16 14:53:00
8:53 AM,37.0,19.9,50,30.31,10.0,East,9.2,-,N/A,,Clear,90,2012-11-16 15:53:00
9:53 AM,41.0,21.0,45,30.27,10.0,ENE,13.8,-,N/A,,Partly Cloudy,70,2012-11-16 16:53:00
10:53 AM,46.0,23.0,40,30.26,10.0,ESE,9.2,-,N/A,,Clear,110,2012-11-16 17:53:00
11:53 AM,48.9,25.0,39,30.19,10.0,ENE,9.2,-,N/A,,Partly Cloudy,70,2012-11-16 18:53:00
12:53 PM,53.1,19.9,27,30.17,10.0,SSW,5.8,-,N/A,,Clear,210,2012-11-16 19:53:00
1:53 PM,50.0,21.9,33,30.17,10.0,SSW,16.1,27.6,N/A,,Unknown,210,2012-11-16 20:53:00
2:53 PM,51.1,23.0,33,30.16,10.0,SSW,6.9,-,0.00,,Overcast,210,2012-11-16 21:53:00
3:53 PM,48.9,25.0,39,30.18,10.0,West,3.5,-,N/A,,Overcast,270,2012-11-16 22:53:00
4:53 PM,46.9,27.0,46,30.18,10.0,NW,5.8,-,N/A,,Overcast,310,2012-11-16 23:53:00
5:53 PM,46.0,28.9,51,30.16,10.0,SSW,5.8,-,0.00,,Overcast,200,2012-11-17 00:53:00
6:53 PM,43.0,32.0,65,30.17,10.0,ENE,3.5,-,0.00,,Overcast,70,2012-11-17 01:53:00
7:53 PM,39.9,32.0,73,30.16,10.0,SE,4.6,-,N/A,,Overcast,130,2012-11-17 02:53:00
8:53 PM,39.9,32.0,73,30.17,10.0,Variable,3.5,-,0.00,,Overcast,0,2012-11-17 03:53:00
9:53 PM,39.0,33.1,79,30.22,10.0,West,9.2,-,N/A,,Overcast,270,2012-11-17 04:53:00
10:00 PM,39.2,33.8,81,30.22,8.0,West,8.1,-,0.01,Rain,Rain,270,2012-11-17 05:00:00
10:41 PM,37.4,33.8,87,30.21,10.0,Calm,Calm,-,0.05,Rain,Light Rain,0,2012-11-17 05:41:00
10:53 PM,37.0,34.0,89,30.19,10.0,ENE,3.5,-,0.05,,Overcast,70,2012-11-17 05:53:00
11:53 PM,37.0,33.1,86,30.19,10.0,East,4.6,-,N/A,,Overcast,100,2012-11-17 06:53:00